createdAt,value
2018-06-23T00:06:44.040Z,96.30
2018-06-23T00:11:46.994Z,97.10
2018-06-23T00:16:49.659Z,97.50
2018-06-23T00:21:52.528Z,97.80
2018-06-23T00:26:55.253Z,97.80
2018-06-23T00:31:57.882Z,98.00
2018-06-23T00:37:00.527Z,98.00
2018-06-23T00:42:03.313Z,98.30
2018-06-23T00:47:05.965Z,98.10
2018-06-23T00:52:08.618Z,98.20
2018-06-23T00:57:11.266Z,98.30
2018-06-23T01:02:13.886Z,98.10
2018-06-23T01:07:16.494Z,98.10
2018-06-23T01:12:19.237Z,98.20
2018-06-23T01:17:21.832Z,98.80
2018-06-23T01:22:24.491Z,98.80
2018-06-23T01:27:27.260Z,99.20
2018-06-23T01:37:32.659Z,99.30
2018-06-23T01:42:35.266Z,99.50
2018-06-23T01:47:37.893Z,99.40
2018-06-23T01:57:43.027Z,99.00
2018-06-23T02:02:45.642Z,99.60
2018-06-23T02:12:50.786Z,99.70
2018-06-23T02:17:59.082Z,99.70
2018-06-23T02:24:11.493Z,99.90
2018-06-23T02:29:19.887Z,99.80
2018-06-23T02:34:28.114Z,99.90
2018-06-23T02:39:30.767Z,99.90
2018-06-23T02:44:33.383Z,99.90
2018-06-23T02:49:36.818Z,99.90
2018-06-23T02:54:39.440Z,99.90
2018-06-23T02:59:42.072Z,99.90
2018-06-23T03:04:44.703Z,99.90
2018-06-23T03:09:47.503Z,99.90
2018-06-23T03:14:50.129Z,99.90
2018-06-23T03:19:52.748Z,99.90
2018-06-23T03:24:55.360Z,99.90
2018-06-23T03:29:58.010Z,99.90
2018-06-23T03:35:00.630Z,99.90
2018-06-23T03:40:03.399Z,99.90
2018-06-23T03:45:06.042Z,99.90
2018-06-23T03:50:09.002Z,99.90
2018-06-23T03:55:11.675Z,99.90
2018-06-23T04:00:14.363Z,99.90
2018-06-23T04:05:16.982Z,99.90
2018-06-23T04:10:19.578Z,99.90
2018-06-23T04:15:22.237Z,99.90
2018-06-23T04:20:24.867Z,99.90
2018-06-23T04:25:27.522Z,99.90
2018-06-23T04:30:30.275Z,99.90
2018-06-23T04:35:32.922Z,99.90
2018-06-23T04:40:35.866Z,99.90
2018-06-23T04:45:38.507Z,99.90
2018-06-23T04:50:41.127Z,99.90
2018-06-23T04:55:44.051Z,99.90
2018-06-23T05:00:46.689Z,99.90
2018-06-23T05:05:49.344Z,99.70
2018-06-23T05:10:52.138Z,99.90
2018-06-23T05:15:55.051Z,99.70
2018-06-23T05:20:57.671Z,99.60
2018-06-23T05:31:02.896Z,99.90
2018-06-23T05:36:06.547Z,99.90
2018-06-23T05:41:09.140Z,99.60
2018-06-23T05:46:11.919Z,98.40
2018-06-23T05:51:14.815Z,97.20
2018-06-23T05:56:17.927Z,97.50
2018-06-23T06:01:20.695Z,96.50
2018-06-23T06:06:23.451Z,95.80
2018-06-23T06:11:26.227Z,95.10
2018-06-23T06:16:37.948Z,94.10
2018-06-23T06:21:40.743Z,93.80
2018-06-23T06:26:43.363Z,93.40
2018-06-23T06:31:46.203Z,92.70
2018-06-23T06:36:48.946Z,92.30
2018-06-23T06:41:51.968Z,91.60
2018-06-23T06:46:55.144Z,91.10
2018-06-23T06:51:57.775Z,90.70
2018-06-23T07:07:06.002Z,89.50
2018-06-23T07:12:08.668Z,87.70
2018-06-23T07:22:13.984Z,84.40
2018-06-23T07:27:16.638Z,83.10
2018-06-23T07:32:19.255Z,79.90
2018-06-23T07:37:21.894Z,80.50
2018-06-23T07:42:24.575Z,79.80
2018-06-23T07:47:27.201Z,79.00
2018-06-23T07:52:29.966Z,78.20
2018-06-23T07:57:32.767Z,76.10
2018-06-23T08:02:35.419Z,76.20
2018-06-23T08:12:40.615Z,70.30
2018-06-23T08:17:43.493Z,67.80
2018-06-23T08:22:46.307Z,64.60
2018-06-23T08:27:48.970Z,62.90
2018-06-23T08:32:51.648Z,63.40
2018-06-23T08:37:54.660Z,65.00
2018-06-23T08:42:57.710Z,62.50
2018-06-23T08:48:00.919Z,59.20
2018-06-23T08:53:04.072Z,57.70
2018-06-23T08:58:06.853Z,56.20
2018-06-23T09:03:09.570Z,53.70
2018-06-23T09:08:12.291Z,54.30
2018-06-23T09:13:14.950Z,54.30
2018-06-23T09:18:17.676Z,56.00
2018-06-23T09:28:23.055Z,57.10
2018-06-23T09:33:25.816Z,53.90
2018-06-23T09:38:28.706Z,50.00
2018-06-23T09:43:31.321Z,49.30
2018-06-23T09:48:33.938Z,52.20
2018-06-23T09:53:36.650Z,51.20
2018-06-23T09:58:39.291Z,52.00
2018-06-23T10:03:41.976Z,52.10
2018-06-23T10:08:47.409Z,47.60
2018-06-23T10:13:51.107Z,45.80
2018-06-23T10:18:54.116Z,49.40
2018-06-23T10:23:56.845Z,49.80
2018-06-23T10:28:59.519Z,51.00
2018-06-23T10:34:02.176Z,48.80
2018-06-23T10:39:07.276Z,50.40
2018-06-23T10:44:09.910Z,48.50
2018-06-23T10:49:12.678Z,48.70
2018-06-23T10:54:15.752Z,45.60
2018-06-23T10:59:18.409Z,42.60
2018-06-23T11:04:21.094Z,43.60
2018-06-23T11:09:23.727Z,44.60
2018-06-23T11:14:26.336Z,41.30
2018-06-23T11:19:29.051Z,41.30
2018-06-23T11:24:31.829Z,40.40
2018-06-23T11:34:37.116Z,39.90
2018-06-23T11:39:39.783Z,41.40
2018-06-23T11:44:42.553Z,42.90
2018-06-23T11:49:45.203Z,37.80
2018-06-23T11:54:48.466Z,39.10
2018-06-23T11:59:51.526Z,34.40
2018-06-23T12:04:54.192Z,31.90
2018-06-23T12:09:57.633Z,29.50
2018-06-23T12:15:00.265Z,30.00
2018-06-23T12:20:03.069Z,31.90
2018-06-23T12:25:05.727Z,28.70
2018-06-23T12:30:08.420Z,25.90
2018-06-23T12:35:11.115Z,27.30
2018-06-23T12:40:13.878Z,29.00
2018-06-23T12:45:16.525Z,30.50
2018-06-23T12:50:19.347Z,30.30
2018-06-23T12:55:21.967Z,27.10
2018-06-23T13:00:24.610Z,23.20
2018-06-23T13:05:27.350Z,23.30
2018-06-23T13:15:32.578Z,22.30
2018-06-23T13:20:35.234Z,21.60
2018-06-23T13:25:37.904Z,22.20
2018-06-23T13:30:40.555Z,24.60
2018-06-23T13:35:43.237Z,22.70
2018-06-23T13:40:45.927Z,23.10
2018-06-23T13:45:48.575Z,21.40
2018-06-23T13:50:51.306Z,20.20
2018-06-23T13:55:54.608Z,20.10
2018-06-23T14:00:57.306Z,19.80
2018-06-23T14:06:00.045Z,22.70
2018-06-23T14:11:02.763Z,22.30
2018-06-23T14:16:05.530Z,20.10
2018-06-23T14:21:08.918Z,20.00
2018-06-23T14:26:11.532Z,21.70
2018-06-23T14:31:14.514Z,20.30
2018-06-23T14:36:17.139Z,19.30
2018-06-23T14:41:19.919Z,19.90
2018-06-23T14:46:22.588Z,20.20
2018-06-23T14:51:25.233Z,22.30
2018-06-23T14:56:27.857Z,25.30
2018-06-23T15:01:30.507Z,24.60
2018-06-23T15:06:33.155Z,25.50
2018-06-23T15:11:47.157Z,24.00
2018-06-23T15:16:49.859Z,22.50
2018-06-23T15:21:52.735Z,21.30
2018-06-23T15:26:55.514Z,19.50
2018-06-23T15:31:58.216Z,18.50
2018-06-23T15:37:00.866Z,19.90
2018-06-23T15:42:03.583Z,22.60
2018-06-23T15:47:06.395Z,27.60
2018-06-23T15:52:08.977Z,29.00
2018-06-23T15:57:11.964Z,30.20
2018-06-23T16:02:14.634Z,26.60
2018-06-23T16:12:20.357Z,22.20
2018-06-23T16:17:24.871Z,22.20
2018-06-23T16:22:28.076Z,21.60
2018-06-23T16:32:33.495Z,25.40
2018-06-23T16:37:36.222Z,23.80
2018-06-23T16:42:38.899Z,25.30
2018-06-23T16:47:41.610Z,24.00
2018-06-23T16:52:44.339Z,23.30
2018-06-23T16:57:47.073Z,20.90
2018-06-23T17:02:49.731Z,20.40
2018-06-23T17:07:52.465Z,20.60
2018-06-23T17:12:55.114Z,21.10
2018-06-23T17:17:57.890Z,21.10
2018-06-23T17:23:00.696Z,21.70
2018-06-23T17:28:03.382Z,23.80
2018-06-23T17:33:06.247Z,26.20
2018-06-23T17:38:08.942Z,29.60
2018-06-23T17:43:11.569Z,34.90
2018-06-23T17:48:14.200Z,36.50
2018-06-23T17:53:16.885Z,37.60
2018-06-23T17:58:20.265Z,38.30
2018-06-23T18:03:22.915Z,41.70
2018-06-23T18:08:26.081Z,44.70
2018-06-23T18:13:28.778Z,46.50
2018-06-23T18:18:31.426Z,48.40
2018-06-23T18:23:34.190Z,49.20
2018-06-23T18:28:36.855Z,51.40
2018-06-23T18:33:39.498Z,51.90
2018-06-23T18:38:42.526Z,53.40
2018-06-23T18:43:45.179Z,53.80
2018-06-23T18:48:47.852Z,55.50
2018-06-23T18:53:52.860Z,56.50
2018-06-23T18:58:55.520Z,57.10
2018-06-23T19:03:58.172Z,58.70
2018-06-23T19:09:01.152Z,58.70
2018-06-23T19:14:03.992Z,59.90
2018-06-23T19:19:06.651Z,61.00
2018-06-23T19:24:09.286Z,62.60
2018-06-23T19:29:11.951Z,63.80
2018-06-23T19:34:14.627Z,65.20
2018-06-23T19:39:17.243Z,67.10
2018-06-23T19:44:19.886Z,68.50
2018-06-23T22:36:08.612Z,95.90
2018-06-23T22:41:11.245Z,96.00
2018-06-23T22:46:13.971Z,96.00
2018-06-23T22:51:17.159Z,95.70
2018-06-23T22:56:19.851Z,95.10
2018-06-23T23:01:22.479Z,94.70
2018-06-23T23:06:25.159Z,94.60
2018-06-23T23:11:27.797Z,94.50
2018-06-23T23:16:30.535Z,94.30
2018-06-23T23:21:33.307Z,93.80
2018-06-23T23:26:36.239Z,93.60
2018-06-23T23:31:38.856Z,93.80
2018-06-23T23:36:41.631Z,93.20
2018-06-23T23:41:44.292Z,93.60
2018-06-23T23:46:46.903Z,93.80
2018-06-23T23:51:49.512Z,93.70
2018-06-23T23:56:52.187Z,93.80
